KFAT/FAT METAR and TAF weather

Enter ICAO airport designator
Station Type Date Time Source
KFAT METAR 2020/07/11 03:53 UTC NOAA

KFAT 110353Z 31007KT 10SM FEW200 34/09 A2989 RMK AO2 SLP117 T03390089


Station Type Date Time Source
KFAT Decoded METAR 2020/07/11 03:53 UTC NOAA

FRESNO AIR TERMINAL, CA, United States (KFAT) 36-47N 119-43W 104M
Jul 10, 2020 - 11:53 PM EDT / 2020.07.11 0353 UTC
Wind: from the NW (310 degrees) at 8 MPH (7 KT):0
Visibility: 10 mile(s):0
Sky conditions: mostly clear
Temperature: 93.0 F (33.9 C)
Dew Point: 48.0 F (8.9 C)
Relative Humidity: 21%
Pressure (altimeter): 29.89 in. Hg (1012 hPa)
ob: KFAT 110353Z 31007KT 10SM FEW200 34/09 A2989 RMK AO2 SLP117 T03390089
cycle: 4

Station Type Date Time Source
KFAT TAF 2020/07/10 18:45 UTC NOAA

TAF KFAT 101742Z 1018/1118 30006KT P6SM SCT200

Example: see airport list